Time;durP1;ratioP1;P1;durP2;ratioP2;P2;SDS_P1;SDS_P2;PMS_P1;PMS_P2;Temp;Humidity;BMP_temperature;BMP_pressure;BME280_temperature;BME280_humidity;BME280_pressure;Samples;Min_cycle;Max_cycle;Signal;HPM_P1;HPM_P2
2024/03/04 00:01:08;;;;;;;;;;;;;;;;;;5100572;28;19928;-82
2024/03/04 00:03:35;;;;;;;;;;;;;;;;;;5102044;28;20436;-82
2024/03/04 00:06:04;;;;;;;;;;;;;;;;;;5108371;28;19963;-81
2024/03/04 00:08:31;;;;;;;;;;;;;;;;;;5102577;28;20046;-82
2024/03/04 00:10:58;;;;;;;;;;;;;;;;;;5109945;28;20011;-82
2024/03/04 00:13:26;;;;;;;;;;;;;;;;;;5105163;28;19932;-81
2024/03/04 00:15:53;;;;;;;;;;;;;;;;;;5101256;28;19924;-83
2024/03/04 00:18:20;;;;;;;;;;;;;;;;;;5103119;28;20446;-84
2024/03/04 00:20:47;;;;;;;;;;;;;;;;;;5099338;28;19971;-84
2024/03/04 00:23:14;;;;;;;;;;;;;;;;;;5114963;28;19950;-85
2024/03/04 00:25:41;;;;;;;;;;;;;;;;;;5108971;28;20020;-84
2024/03/04 00:28:09;;;;;;;;;;;;;;;;;;5105003;28;19928;-84
2024/03/04 00:30:36;;;;;;;;;;;;;;;;;;5113579;28;19977;-83
2024/03/04 00:33:03;;;;;;;;;;;;;;;;;;5102314;28;19932;-82
2024/03/04 00:35:30;;;;;;;;;;;;;;;;;;5103421;28;19928;-82
2024/03/04 00:37:57;;;;;;;;;;;;;;;;;;5114007;28;20466;-82
2024/03/04 00:40:24;;;;;;;;;;;;;;;;;;5102817;28;19936;-82
2024/03/04 00:42:51;;;;;;;;;;;;;;;;;;5094180;28;19955;-82
2024/03/04 00:45:18;;;;;;;;;;;;;;;;;;5096716;28;20018;-82
2024/03/04 00:47:45;;;;;;;;;;;;;;;;;;5109042;28;19927;-82
2024/03/04 00:50:12;;;;;;;;;;;;;;;;;;5096044;28;20028;-82
2024/03/04 00:52:39;;;;;;;;;;;;;;;;;;5113274;28;20391;-82
2024/03/04 00:55:06;;;;;;;;;;;;;;;;;;5104739;28;20049;-84
2024/03/04 00:57:33;;;;;;;;;;;;;;;;;;5113272;28;20434;-83
2024/03/04 01:00:00;;;;;;;;;;;;;;;;;;5097557;28;19934;-82
2024/03/04 01:02:27;;;;;;;;;;;;;;;;;;5108487;28;19961;-83
2024/03/04 01:04:55;;;;;;;;;;;;;;;;;;5098091;28;19932;-84
2024/03/04 01:07:23;;;;;;;;;;;;;;;;;;5103724;28;19924;-83
2024/03/04 01:09:50;;;;;;;;;;;;;;;;;;5105998;28;19928;-83
2024/03/04 01:12:17;;;;;;;;;;;;;;;;;;5114002;28;19935;-84
2024/03/04 01:14:44;;;;;;;;;;;;;;;;;;5094075;28;20513;-85
2024/03/04 01:17:16;;;;;;;;;;;;;;;;;;5094004;28;20472;-84
2024/03/04 01:19:45;;;;;;;;;;;;;;;;;;5093215;28;19931;-84
2024/03/04 01:22:13;;;;;;;;;;;;;;;;;;5111679;28;19923;-84
2024/03/04 01:24:40;;;;;;;;;;;;;;;;;;5114050;28;20309;-84
2024/03/04 01:27:07;;;;;;;;;;;;;;;;;;5099153;28;19924;-84
2024/03/04 01:29:34;;;;;;;;;;;;;;;;;;5117784;28;20012;-84
2024/03/04 01:32:02;;;;;;;;;;;;;;;;;;5109608;28;19928;-84
2024/03/04 01:34:29;;;;;;;;;;;;;;;;;;5094061;28;20632;-83
2024/03/04 01:36:56;;;;;;;;;;;;;;;;;;5108104;28;19923;-86
2024/03/04 01:39:24;;;;;;;;;;;;;;;;;;5102623;28;20335;-85
2024/03/04 01:41:51;;;;;;;;;;;;;;;;;;5098601;28;19928;-86
2024/03/04 01:44:18;;;;;;;;;;;;;;;;;;5108524;28;20410;-85
2024/03/04 01:46:45;;;;;;;;;;;;;;;;;;5107937;28;19932;-84
2024/03/04 01:49:12;;;;;;;;;;;;;;;;;;5094077;28;20365;-83
2024/03/04 01:51:39;;;;;;;;;;;;;;;;;;5110722;28;19989;-83
2024/03/04 01:54:06;;;;;;;;;;;;;;;;;;5113255;28;20287;-83
2024/03/04 01:56:33;;;;;;;;;;;;;;;;;;5099126;28;19975;-84
2024/03/04 01:59:00;;;;;;;;;;;;;;;;;;5107193;28;19927;-82
2024/03/04 02:01:27;;;;;;;;;;;;;;;;;;5094948;28;20614;-84
2024/03/04 02:03:54;;;;;;;;;;;;;;;;;;5111684;28;19970;-82
2024/03/04 02:06:21;;;;;;;;;;;;;;;;;;5100732;28;19935;-84
2024/03/04 02:08:48;;;;;;;;;;;;;;;;;;5103531;28;19979;-82
2024/03/04 02:11:15;;;;;;;;;;;;;;;;;;5098024;28;19928;-83
2024/03/04 02:13:42;;;;;;;;;;;;;;;;;;5106121;28;20348;-83
2024/03/04 02:16:09;;;;;;;;;;;;;;;;;;5104966;28;20022;-83
2024/03/04 02:18:36;;;;;;;;;;;;;;;;;;5102067;28;20565;-83
2024/03/04 02:21:03;;;;;;;;;;;;;;;;;;5099749;28;19975;-83
2024/03/04 02:23:30;;;;;;;;;;;;;;;;;;5112772;28;20239;-81
2024/03/04 02:25:58;;;;;;;;;;;;;;;;;;5112066;28;19927;-83
2024/03/04 02:28:27;;;;;;;;;;;;;;;;;;5112542;28;19938;-82
2024/03/04 02:30:54;;;;;;;;;;;;;;;;;;5111155;28;19928;-84
2024/03/04 02:33:21;;;;;;;;;;;;;;;;;;5110609;28;19935;-82
2024/03/04 02:35:48;;;;;;;;;;;;;;;;;;5109378;28;20002;-84
2024/03/04 02:38:15;;;;;;;;;;;;;;;;;;5112596;28;19958;-84
2024/03/04 02:40:42;;;;;;;;;;;;;;;;;;5106101;28;19977;-84
2024/03/04 02:43:11;;;;;;;;;;;;;;;;;;5100523;28;19978;-82
2024/03/04 02:45:38;;;;;;;;;;;;;;;;;;5099663;28;19927;-83
2024/03/04 02:48:05;;;;;;;;;;;;;;;;;;5096723;28;19978;-82
2024/03/04 02:50:33;;;;;;;;;;;;;;;;;;5109975;28;20015;-83
2024/03/04 02:53:01;;;;;;;;;;;;;;;;;;5101772;28;19928;-85
2024/03/04 02:55:28;;;;;;;;;;;;;;;;;;5107870;28;19928;-84
2024/03/04 02:57:55;;;;;;;;;;;;;;;;;;5099227;28;19935;-83
2024/03/04 03:00:22;;;;;;;;;;;;;;;;;;5112549;28;20052;-84
2024/03/04 03:02:49;;;;;;;;;;;;;;;;;;5112793;28;20357;-81
2024/03/04 03:05:16;;;;;;;;;;;;;;;;;;5092473;28;19928;-82
2024/03/04 03:07:43;;;;;;;;;;;;;;;;;;5097923;28;19924;-83
2024/03/04 03:10:10;;;;;;;;;;;;;;;;;;5101812;28;20348;-83
2024/03/04 03:12:38;;;;;;;;;;;;;;;;;;5109920;28;20018;-82
2024/03/04 03:15:06;;;;;;;;;;;;;;;;;;5097014;28;20046;-83
2024/03/04 03:17:32;;;;;;;;;;;;;;;;;;5096700;28;19975;-84
2024/03/04 03:19:59;;;;;;;;;;;;;;;;;;5107935;28;19928;-84
2024/03/04 03:22:26;;;;;;;;;;;;;;;;;;5109882;28;20043;-83
2024/03/04 03:24:53;;;;;;;;;;;;;;;;;;5108232;28;19930;-83
2024/03/04 03:27:20;;;;;;;;;;;;;;;;;;5110236;28;20026;-83
2024/03/04 03:29:47;;;;;;;;;;;;;;;;;;5111575;28;20018;-84
2024/03/04 03:32:14;;;;;;;;;;;;;;;;;;5106360;28;19936;-84
2024/03/04 03:34:41;;;;;;;;;;;;;;;;;;5092591;28;19981;-84
2024/03/04 03:37:08;;;;;;;;;;;;;;;;;;5102733;28;19924;-84
2024/03/04 03:39:35;;;;;;;;;;;;;;;;;;5103053;28;20023;-84
2024/03/04 03:42:07;;;;;;;;;;;;;;;;;;5099260;28;19993;-85
2024/03/04 03:44:34;;;;;;;;;;;;;;;;;;5103444;28;19927;-83
2024/03/04 03:47:01;;;;;;;;;;;;;;;;;;5111390;28;19934;-81
2024/03/04 03:49:28;;;;;;;;;;;;;;;;;;5090266;28;19978;-81
2024/03/04 03:51:55;;;;;;;;;;;;;;;;;;5106114;28;19975;-83
2024/03/04 03:54:23;;;;;;;;;;;;;;;;;;5111077;28;20627;-80
2024/03/04 03:56:50;;;;;;;;;;;;;;;;;;5110757;28;20411;-84
2024/03/04 03:59:16;;;;;;;;;;;;;;;;;;5110050;28;20022;-84
2024/03/04 04:01:43;;;;;;;;;;;;;;;;;;5096599;28;19974;-83
2024/03/04 04:04:10;;;;;;;;;;;;;;;;;;5095415;28;19928;-84
2024/03/04 04:06:40;;;;;;;;;;;;;;;;;;5092053;28;19936;-82
2024/03/04 04:09:07;;;;;;;;;;;;;;;;;;5101555;28;20012;-85
2024/03/04 04:11:34;;;;;;;;;;;;;;;;;;5110903;28;20005;-84
2024/03/04 04:14:01;;;;;;;;;;;;;;;;;;5107306;28;19979;-85
2024/03/04 04:16:28;;;;;;;;;;;;;;;;;;5102867;28;20667;-84
2024/03/04 04:18:55;;;;;;;;;;;;;;;;;;5098114;28;19951;-86
2024/03/04 04:21:23;;;;;;;;;;;;;;;;;;5102811;28;19966;-85
2024/03/04 04:23:50;;;;;;;;;;;;;;;;;;5102337;28;20591;-85
2024/03/04 04:26:17;;;;;;;;;;;;;;;;;;5100023;28;19932;-84
2024/03/04 04:28:44;;;;;;;;;;;;;;;;;;5090486;28;20022;-85
2024/03/04 04:31:11;;;;;;;;;;;;;;;;;;5091490;28;19928;-85
2024/03/04 04:33:38;;;;;;;;;;;;;;;;;;5100197;28;19927;-85
2024/03/04 04:36:05;;;;;;;;;;;;;;;;;;5102305;28;19932;-84
2024/03/04 04:38:32;;;;;;;;;;;;;;;;;;5106485;28;20310;-83
2024/03/04 04:40:59;;;;;;;;;;;;;;;;;;5111115;28;19934;-85
2024/03/04 04:43:26;;;;;;;;;;;;;;;;;;5105893;28;20034;-84
2024/03/04 04:45:53;;;;;;;;;;;;;;;;;;5106775;28;20094;-85
2024/03/04 04:48:21;;;;;;;;;;;;;;;;;;5110540;28;20406;-84
2024/03/04 04:50:48;;;;;;;;;;;;;;;;;;5102328;28;19977;-84
2024/03/04 04:53:15;;;;;;;;;;;;;;;;;;5110924;28;20014;-84
2024/03/04 04:55:42;;;;;;;;;;;;;;;;;;5113650;28;19950;-83
2024/03/04 04:58:09;;;;;;;;;;;;;;;;;;5112850;28;19927;-81
2024/03/04 05:00:36;;;;;;;;;;;;;;;;;;5107748;28;19932;-81
2024/03/04 05:03:03;;;;;;;;;;;;;;;;;;5112776;28;20686;-82
2024/03/04 05:05:30;;;;;;;;;;;;;;;;;;5114883;28;20010;-84
2024/03/04 05:07:57;;;;;;;;;;;;;;;;;;5109616;28;20022;-85
2024/03/04 05:10:24;;;;;;;;;;;;;;;;;;5098381;28;20630;-81
2024/03/04 05:12:51;;;;;;;;;;;;;;;;;;5104413;28;19971;-82
2024/03/04 05:15:18;;;;;;;;;;;;;;;;;;5101698;28;19924;-85
2024/03/04 05:17:46;;;;;;;;;;;;;;;;;;5117287;27;19932;-88
2024/03/04 05:20:15;;;;;;;;;;;;;;;;;;5116783;28;19928;-88
2024/03/04 05:22:42;;;;;;;;;;;;;;;;;;5111115;28;20405;-87
2024/03/04 05:25:09;;;;;;;;;;;;;;;;;;5115137;28;20362;-87
2024/03/04 05:27:36;;;;;;;;;;;;;;;;;;5113029;28;19935;-87
2024/03/04 05:30:04;;;;;;;;;;;;;;;;;;5096332;28;19928;-85
2024/03/04 05:32:31;;;;;;;;;;;;;;;;;;5115201;28;19930;-85
2024/03/04 05:34:58;;;;;;;;;;;;;;;;;;5115319;28;20048;-87
2024/03/04 05:37:25;;;;;;;;;;;;;;;;;;5094265;28;20018;-85
2024/03/04 05:39:52;;;;;;;;;;;;;;;;;;5093579;28;19935;-85
2024/03/04 05:42:19;;;;;;;;;;;;;;;;;;5109278;28;20357;-85
2024/03/04 05:44:46;;;;;;;;;;;;;;;;;;5095794;28;20034;-86
2024/03/04 05:47:13;;;;;;;;;;;;;;;;;;5094950;28;19978;-85
2024/03/04 05:49:40;;;;;;;;;;;;;;;;;;5094905;28;19978;-84
2024/03/04 05:52:07;;;;;;;;;;;;;;;;;;5109913;28;20364;-84
2024/03/04 05:54:34;;;;;;;;;;;;;;;;;;5114549;28;19924;-85
2024/03/04 05:57:01;;;;;;;;;;;;;;;;;;5111263;28;20019;-84
2024/03/04 05:59:28;;;;;;;;;;;;;;;;;;5114503;28;19977;-86
2024/03/04 06:01:55;;;;;;;;;;;;;;;;;;5116487;28;20010;-86
2024/03/04 06:04:24;;;;;;;;;;;;;;;;;;5112396;28;20339;-85
2024/03/04 06:06:51;;;;;;;;;;;;;;;;;;5114263;28;19928;-85
2024/03/04 06:09:18;;;;;;;;;;;;;;;;;;5115963;28;20022;-83
2024/03/04 06:11:46;;;;;;;;;;;;;;;;;;5095656;28;19924;-84
2024/03/04 06:14:13;;;;;;;;;;;;;;;;;;5114748;28;19969;-86
2024/03/04 06:16:41;;;;;;;;;;;;;;;;;;5112197;28;19924;-84
2024/03/04 06:19:08;;;;;;;;;;;;;;;;;;5105810;28;20386;-88
2024/03/04 06:21:36;;;;;;;;;;;;;;;;;;5098818;28;19958;-85
2024/03/04 06:24:03;;;;;;;;;;;;;;;;;;5099518;28;19935;-86
2024/03/04 06:26:30;;;;;;;;;;;;;;;;;;5116224;28;19974;-85
2024/03/04 06:28:57;;;;;;;;;;;;;;;;;;5115206;28;20018;-84
2024/03/04 06:31:24;;;;;;;;;;;;;;;;;;5100115;28;20026;-86
2024/03/04 06:33:51;;;;;;;;;;;;;;;;;;5094064;28;20046;-77
2024/03/04 06:36:18;;;;;;;;;;;;;;;;;;5104533;28;19934;-80
2024/03/04 06:38:45;;;;;;;;;;;;;;;;;;5107622;28;20652;-81
2024/03/04 06:41:12;;;;;;;;;;;;;;;;;;5111420;28;19927;-82
2024/03/04 06:43:39;;;;;;;;;;;;;;;;;;5104866;28;19928;-82
2024/03/04 06:46:07;;;;;;;;;;;;;;;;;;5099282;27;19932;-81
2024/03/04 06:48:34;;;;;;;;;;;;;;;;;;5102096;28;20009;-81
2024/03/04 06:51:01;;;;;;;;;;;;;;;;;;5101027;28;20019;-82
2024/03/04 06:53:28;;;;;;;;;;;;;;;;;;5107253;28;19928;-82
2024/03/04 06:55:55;;;;;;;;;;;;;;;;;;5101177;28;19932;-81
2024/03/04 06:58:23;;;;;;;;;;;;;;;;;;5110932;28;20038;-82
2024/03/04 07:00:51;;;;;;;;;;;;;;;;;;5104301;28;19928;-82
2024/03/04 07:03:18;;;;;;;;;;;;;;;;;;5111062;28;20275;-81
2024/03/04 07:05:45;;;;;;;;;;;;;;;;;;5109827;28;20382;-80
2024/03/04 07:08:12;;;;;;;;;;;;;;;;;;5110817;28;19927;-82
2024/03/04 07:10:39;;;;;;;;;;;;;;;;;;5111331;28;19963;-83
2024/03/04 07:13:06;;;;;;;;;;;;;;;;;;5111654;28;19938;-83
2024/03/04 07:15:33;;;;;;;;;;;;;;;;;;5108437;28;20434;-83
2024/03/04 07:18:00;;;;;;;;;;;;;;;;;;5111214;28;20003;-82
2024/03/04 07:20:27;;;;;;;;;;;;;;;;;;5107908;28;19943;-82
2024/03/04 07:22:54;;;;;;;;;;;;;;;;;;5109132;28;19967;-83
2024/03/04 07:25:21;;;;;;;;;;;;;;;;;;5110736;28;20014;-79
2024/03/04 07:27:48;;;;;;;;;;;;;;;;;;5110486;28;20072;-78
2024/03/04 07:30:15;;;;;;;;;;;;;;;;;;5111146;28;19923;-83
2024/03/04 07:32:42;;;;;;;;;;;;;;;;;;5109703;28;19934;-83
2024/03/04 07:35:09;;;;;;;;;;;;;;;;;;5100390;28;20379;-82
2024/03/04 07:37:36;;;;;;;;;;;;;;;;;;5110311;28;19932;-79
2024/03/04 07:40:03;;;;;;;;;;;;;;;;;;5104608;28;20015;-81
2024/03/04 07:42:30;;;;;;;;;;;;;;;;;;5109614;28;19928;-83
2024/03/04 07:44:57;;;;;;;;;;;;;;;;;;5106560;28;19930;-81
2024/03/04 07:47:24;;;;;;;;;;;;;;;;;;5110288;28;19928;-81
2024/03/04 07:49:51;;;;;;;;;;;;;;;;;;5104063;28;19928;-81
2024/03/04 07:52:18;;;;;;;;;;;;;;;;;;5103391;28;20011;-82
2024/03/04 07:54:45;;;;;;;;;;;;;;;;;;5109973;28;20384;-82
2024/03/04 07:57:13;;;;;;;;;;;;;;;;;;5108348;28;19934;-81
2024/03/04 07:59:40;;;;;;;;;;;;;;;;;;5103127;28;19928;-81
2024/03/04 08:02:08;;;;;;;;;;;;;;;;;;5111328;28;19990;-82
2024/03/04 08:04:35;;;;;;;;;;;;;;;;;;5109015;28;19928;-82
2024/03/04 08:07:02;;;;;;;;;;;;;;;;;;5090612;28;19932;-82
2024/03/04 08:09:29;;;;;;;;;;;;;;;;;;5089306;28;20020;-82
2024/03/04 08:11:59;;;;;;;;;;;;;;;;;;5089704;28;19964;-82
2024/03/04 08:14:27;;;;;;;;;;;;;;;;;;5103628;28;19953;-82
2024/03/04 08:16:54;;;;;;;;;;;;;;;;;;5105333;28;19974;-82
2024/03/04 08:19:21;;;;;;;;;;;;;;;;;;5101163;28;20374;-84
2024/03/04 08:21:48;;;;;;;;;;;;;;;;;;5099418;28;20015;-83
2024/03/04 08:24:15;;;;;;;;;;;;;;;;;;5102025;28;19978;-80
2024/03/04 08:26:42;;;;;;;;;;;;;;;;;;5109846;28;20354;-82
2024/03/04 08:29:09;;;;;;;;;;;;;;;;;;5109774;28;20038;-83
2024/03/04 08:31:38;;;;;;;;;;;;;;;;;;5108291;28;19939;-84
2024/03/04 08:34:05;;;;;;;;;;;;;;;;;;5108299;28;19935;-82
2024/03/04 08:36:32;;;;;;;;;;;;;;;;;;5112332;28;19981;-85
2024/03/04 08:38:59;;;;;;;;;;;;;;;;;;5112835;28;20145;-82
2024/03/04 08:41:26;;;;;;;;;;;;;;;;;;5100335;28;20007;-83
2024/03/04 08:43:53;;;;;;;;;;;;;;;;;;5108306;28;19932;-82
2024/03/04 08:46:20;;;;;;;;;;;;;;;;;;5110242;28;20365;-82
2024/03/04 08:48:47;;;;;;;;;;;;;;;;;;5107638;28;20271;-87
2024/03/04 08:51:17;;;;;;;;;;;;;;;;;;5106980;28;19934;-79
2024/03/04 08:53:45;;;;;;;;;;;;;;;;;;5111699;28;19997;-80
2024/03/04 08:56:12;;;;;;;;;;;;;;;;;;5111286;28;20334;-81
2024/03/04 08:58:39;;;;;;;;;;;;;;;;;;5111522;28;19930;-81
2024/03/04 09:01:07;;;;;;;;;;;;;;;;;;5109899;28;20465;-80
2024/03/04 09:03:34;;;;;;;;;;;;;;;;;;5106513;28;19924;-81
2024/03/04 09:06:02;;;;;;;;;;;;;;;;;;5106947;28;19940;-88
2024/03/04 09:08:29;;;;;;;;;;;;;;;;;;5113783;28;19927;-90
2024/03/04 09:10:56;;;;;;;;;;;;;;;;;;5121360;28;20010;-88
2024/03/04 09:13:23;;;;;;;;;;;;;;;;;;5049933;28;1852329;-88
2024/03/04 09:15:50;;;;;;;;;;;;;;;;;;5112313;28;19927;-91
2024/03/04 09:18:17;;;;;;;;;;;;;;;;;;5116222;28;19966;-92
2024/03/04 09:20:45;;;;;;;;;;;;;;;;;;5100675;28;19923;-90
2024/03/04 09:23:12;;;;;;;;;;;;;;;;;;5113632;28;19939;-91
2024/03/04 09:25:39;;;;;;;;;;;;;;;;;;5116624;28;20345;-81
2024/03/04 09:28:07;;;;;;;;;;;;;;;;;;5110225;28;20428;-80
2024/03/04 09:30:34;;;;;;;;;;;;;;;;;;5111488;28;20294;-81
2024/03/04 09:33:02;;;;;;;;;;;;;;;;;;5112681;28;19928;-84
2024/03/04 09:35:29;;;;;;;;;;;;;;;;;;5112421;28;19928;-83
2024/03/04 09:37:56;;;;;;;;;;;;;;;;;;5109086;28;20002;-80
2024/03/04 09:40:23;;;;;;;;;;;;;;;;;;5108188;28;19990;-81
2024/03/04 09:42:50;;;;;;;;;;;;;;;;;;5107717;28;19931;-82
2024/03/04 09:45:17;;;;;;;;;;;;;;;;;;5106351;28;20018;-82
2024/03/04 09:47:44;;;;;;;;;;;;;;;;;;5109961;28;20709;-78
2024/03/04 09:50:11;;;;;;;;;;;;;;;;;;5105364;28;20026;-82
2024/03/04 09:52:38;;;;;;;;;;;;;;;;;;5108809;28;19934;-80
2024/03/04 09:55:05;;;;;;;;;;;;;;;;;;5108660;28;20015;-79
2024/03/04 09:57:32;;;;;;;;;;;;;;;;;;5101482;28;19924;-81
2024/03/04 09:59:59;;;;;;;;;;;;;;;;;;5098327;28;19987;-87
2024/03/04 10:02:26;;;;;;;;;;;;;;;;;;5096924;28;20397;-78
2024/03/04 10:04:53;;;;;;;;;;;;;;;;;;5108128;28;20011;-81
2024/03/04 10:07:20;;;;;;;;;;;;;;;;;;5110183;28;19934;-83
2024/03/04 10:09:47;;;;;;;;;;;;;;;;;;5104174;28;20383;-85
2024/03/04 10:12:14;;;;;;;;;;;;;;;;;;5102710;28;20006;-87
2024/03/04 10:14:41;;;;;;;;;;;;;;;;;;5099900;28;20022;-84
2024/03/04 10:17:08;;;;;;;;;;;;;;;;;;5103238;28;19932;-83
2024/03/04 10:19:35;;;;;;;;;;;;;;;;;;5111696;28;20011;-85
2024/03/04 10:22:02;;;;;;;;;;;;;;;;;;5102555;28;19928;-83
2024/03/04 10:24:29;;;;;;;;;;;;;;;;;;5090941;28;20035;-83
2024/03/04 10:26:56;;;;;;;;;;;;;;;;;;5097814;28;19963;-83
2024/03/04 10:29:25;;;;;;;;;;;;;;;;;;5110011;28;20022;-79
2024/03/04 10:31:52;;;;;;;;;;;;;;;;;;5096692;28;19951;-80
2024/03/04 10:34:19;;;;;;;;;;;;;;;;;;5107370;28;20030;-81
2024/03/04 10:36:46;;;;;;;;;;;;;;;;;;5109655;28;19929;-84
2024/03/04 10:39:13;;;;;;;;;;;;;;;;;;5109930;28;19935;-83
2024/03/04 10:41:40;;;;;;;;;;;;;;;;;;5105362;28;20018;-82
2024/03/04 10:44:07;;;;;;;;;;;;;;;;;;5106751;28;19931;-82
2024/03/04 10:46:34;;;;;;;;;;;;;;;;;;5106098;27;20015;-82
2024/03/04 10:49:01;;;;;;;;;;;;;;;;;;5106955;28;20310;-82
2024/03/04 10:51:28;;;;;;;;;;;;;;;;;;5107887;28;20018;-83
2024/03/04 10:53:59;;;;;;;;;;;;;;;;;;5110139;28;19942;-84
2024/03/04 10:56:26;;;;;;;;;;;;;;;;;;5107937;28;19927;-83
2024/03/04 10:58:53;;;;;;;;;;;;;;;;;;5109026;28;20019;-86
2024/03/04 11:01:20;;;;;;;;;;;;;;;;;;5111743;28;20456;-90
2024/03/04 11:03:48;;;;;;;;;;;;;;;;;;5104531;28;19934;-82
2024/03/04 11:06:15;;;;;;;;;;;;;;;;;;5106719;28;19932;-81
2024/03/04 11:08:42;;;;;;;;;;;;;;;;;;5110056;28;19928;-83
2024/03/04 11:11:09;;;;;;;;;;;;;;;;;;5106227;28;19928;-81
2024/03/04 11:13:37;;;;;;;;;;;;;;;;;;5102179;28;19928;-81
2024/03/04 11:16:04;;;;;;;;;;;;;;;;;;5109147;28;20394;-82
2024/03/04 11:18:32;;;;;;;;;;;;;;;;;;5105447;28;19928;-87
2024/03/04 11:20:59;;;;;;;;;;;;;;;;;;5105624;27;20017;-79
2024/03/04 11:23:26;;;;;;;;;;;;;;;;;;5108329;28;20381;-85
2024/03/04 11:25:53;;;;;;;;;;;;;;;;;;5107800;28;19934;-85
2024/03/04 11:28:20;;;;;;;;;;;;;;;;;;5113330;28;20339;-85
2024/03/04 11:30:50;;;;;;;;;;;;;;;;;;5106670;28;19932;-85
2024/03/04 11:33:17;;;;;;;;;;;;;;;;;;5107056;28;20409;-86
2024/03/04 11:35:44;;;;;;;;;;;;;;;;;;5103883;28;19927;-84
2024/03/04 11:38:11;;;;;;;;;;;;;;;;;;5110738;28;19934;-83
2024/03/04 11:40:38;;;;;;;;;;;;;;;;;;5107804;28;20382;-83
2024/03/04 11:43:05;;;;;;;;;;;;;;;;;;5110189;28;20015;-83
2024/03/04 11:45:32;;;;;;;;;;;;;;;;;;5108063;28;19935;-85
2024/03/04 11:47:59;;;;;;;;;;;;;;;;;;5107756;28;20334;-80
2024/03/04 11:50:26;;;;;;;;;;;;;;;;;;5111359;28;20031;-84
2024/03/04 11:52:53;;;;;;;;;;;;;;;;;;5102093;28;19970;-81
2024/03/04 11:55:20;;;;;;;;;;;;;;;;;;5097758;28;19966;-82
2024/03/04 11:57:47;;;;;;;;;;;;;;;;;;5103945;28;20441;-84
2024/03/04 12:00:15;;;;;;;;;;;;;;;;;;5107650;28;20379;-79
2024/03/04 12:02:42;;;;;;;;;;;;;;;;;;5103032;28;19967;-78
2024/03/04 12:05:08;;;;;;;;;;;;;;;;;;5096277;28;19931;-80
2024/03/04 12:07:36;;;;;;;;;;;;;;;;;;5104663;28;20252;-79
2024/03/04 12:10:05;;;;;;;;;;;;;;;;;;5108142;28;19963;-78
2024/03/04 12:12:32;;;;;;;;;;;;;;;;;;5104340;28;20287;-77
2024/03/04 12:14:59;;;;;;;;;;;;;;;;;;5099832;28;20436;-79
2024/03/04 12:17:27;;;;;;;;;;;;;;;;;;5103629;28;20478;-79
2024/03/04 12:19:54;;;;;;;;;;;;;;;;;;5106088;28;20022;-78
2024/03/04 12:22:21;;;;;;;;;;;;;;;;;;5106828;28;19930;-77
2024/03/04 12:24:48;;;;;;;;;;;;;;;;;;5107774;28;19965;-79
2024/03/04 12:27:19;;;;;;;;;;;;;;;;;;5101920;28;19927;-78
2024/03/04 12:29:46;;;;;;;;;;;;;;;;;;5107598;28;19928;-78
2024/03/04 12:32:13;;;;;;;;;;;;;;;;;;5100318;28;19967;-77
2024/03/04 12:34:40;;;;;;;;;;;;;;;;;;5094146;28;19963;-78
2024/03/04 12:37:07;;;;;;;;;;;;;;;;;;5097712;28;20019;-78
2024/03/04 12:39:35;;;;;;;;;;;;;;;;;;5105617;28;19932;-78
2024/03/04 12:42:03;;;;;;;;;;;;;;;;;;5101580;28;20408;-77
2024/03/04 12:44:30;;;;;;;;;;;;;;;;;;5103742;28;19932;-78
2024/03/04 12:46:57;;;;;;;;;;;;;;;;;;5106137;28;19934;-79
2024/03/04 12:49:24;;;;;;;;;;;;;;;;;;5104400;28;19928;-79
2024/03/04 12:51:51;;;;;;;;;;;;;;;;;;5100794;28;20378;-76
2024/03/04 12:54:18;;;;;;;;;;;;;;;;;;5098056;28;19928;-78
2024/03/04 12:56:45;;;;;;;;;;;;;;;;;;5104210;28;19978;-77
2024/03/04 12:59:12;;;;;;;;;;;;;;;;;;5095037;28;19934;-77
2024/03/04 13:01:39;;;;;;;;;;;;;;;;;;5100848;28;20026;-75
2024/03/04 13:04:07;;;;;;;;;;;;;;;;;;5093763;28;19977;-76
2024/03/04 13:06:34;;;;;;;;;;;;;;;;;;5103116;28;19934;-76
2024/03/04 13:09:01;;;;;;;;;;;;;;;;;;5104575;28;19928;-77
2024/03/04 13:11:28;;;;;;;;;;;;;;;;;;5107167;28;20022;-79
2024/03/04 13:13:55;;;;;;;;;;;;;;;;;;5097051;28;20018;-76
2024/03/04 13:16:22;;;;;;;;;;;;;;;;;;5112196;28;19934;-77
2024/03/04 13:18:49;;;;;;;;;;;;;;;;;;5106058;28;20030;-73
2024/03/04 13:21:16;;;;;;;;;;;;;;;;;;5104326;28;20390;-74
2024/03/04 13:23:43;;;;;;;;;;;;;;;;;;5106780;28;20098;-74
2024/03/04 13:26:10;;;;;;;;;;;;;;;;;;5111616;28;20060;-76
2024/03/04 13:28:37;;;;;;;;;;;;;;;;;;5111326;28;19927;-77
2024/03/04 13:31:04;;;;;;;;;;;;;;;;;;5109387;28;20337;-76
2024/03/04 13:33:31;;;;;;;;;;;;;;;;;;5110209;28;19950;-76
2024/03/04 13:35:59;;;;;;;;;;;;;;;;;;5100090;28;20470;-77
2024/03/04 13:38:31;;;;;;;;;;;;;;;;;;5107802;28;20006;-77
2024/03/04 13:41:00;;;;;;;;;;;;;;;;;;5108873;28;20027;-78
2024/03/04 13:45:56;;;;;;;;;;;;;;;;;;5058395;28;19928;-77
2024/03/04 13:48:23;;;;;;;;;;;;;;;;;;5068367;28;19928;-78
2024/03/04 13:50:50;;;;;;;;;;;;;;;;;;5064504;28;20383;-76
2024/03/04 13:53:17;;;;;;;;;;;;;;;;;;5068074;28;19932;-76
2024/03/04 13:55:45;;;;;;;;;;;;;;;;;;5068405;28;20007;-77
2024/03/04 13:58:12;;;;;;;;;;;;;;;;;;5068524;28;19932;-77
2024/03/04 14:00:41;;;;;;;;;;;;;;;;;;5066706;28;19929;-76
2024/03/04 14:03:08;;;;;;;;;;;;;;;;;;5069350;28;19932;-76
2024/03/04 14:05:35;;;;;;;;;;;;;;;;;;5070670;28;20332;-77
2024/03/04 14:08:03;;;;;;;;;;;;;;;;;;5058902;28;19964;-77
2024/03/04 14:10:30;;;;;;;;;;;;;;;;;;5069967;28;19970;-77
2024/03/04 14:12:57;;;;;;;;;;;;;;;;;;5068177;28;20289;-78
2024/03/04 14:15:24;;;;;;;;;;;;;;;;;;5068810;28;20019;-73
2024/03/04 14:17:51;;;;;;;;;;;;;;;;;;5068563;28;19932;-74
2024/03/04 14:20:18;;;;;;;;;;;;;;;;;;5068040;28;19935;-74
2024/03/04 14:22:45;;;;;;;;;;;;;;;;;;5066189;28;20397;-75
2024/03/04 14:25:12;;;;;;;;;;;;;;;;;;5067298;28;19928;-75
2024/03/04 14:27:39;;;;;;;;;;;;;;;;;;5081223;28;20387;-74
2024/03/04 14:30:06;;;;;;;;;;;;;;;;;;5060700;28;19975;-75
2024/03/04 14:32:33;;;;;;;;;;;;;;;;;;5062605;28;19932;-76
2024/03/04 14:35:00;;;;;;;;;;;;;;;;;;5066973;28;20029;-76
2024/03/04 14:37:31;;;;;;;;;;;;;;;;;;5058300;28;20023;-75
2024/03/04 14:40:02;;;;;;;;;;;;;;;;;;5065041;28;19932;-76
2024/03/04 14:42:31;;;;;;;;;;;;;;;;;;5062889;28;19948;-75
2024/03/04 14:44:58;;;;;;;;;;;;;;;;;;5066843;28;20007;-75
2024/03/04 14:47:26;;;;;;;;;;;;;;;;;;5066912;28;19942;-75
2024/03/04 14:49:54;;;;;;;;;;;;;;;;;;5067353;28;19933;-77
2024/03/04 14:52:22;;;;;;;;;;;;;;;;;;5067724;28;20010;-74
2024/03/04 14:54:49;;;;;;;;;;;;;;;;;;5067756;28;20059;-75
2024/03/04 14:57:16;;;;;;;;;;;;;;;;;;5055771;28;19929;-80
2024/03/04 14:59:43;;;;;;;;;;;;;;;;;;5062520;28;20410;-79
2024/03/04 15:02:10;;;;;;;;;;;;;;;;;;5067173;28;19929;-79
2024/03/04 15:04:38;;;;;;;;;;;;;;;;;;5063542;28;20015;-77
2024/03/04 15:07:05;;;;;;;;;;;;;;;;;;5069070;28;19932;-79
2024/03/04 15:09:33;;;;;;;;;;;;;;;;;;5062760;28;19928;-79
2024/03/04 15:12:00;;;;;;;;;;;;;;;;;;5059790;28;19986;-78
2024/03/04 15:14:27;;;;;;;;;;;;;;;;;;5058753;28;20340;-77
2024/03/04 15:16:54;;;;;;;;;;;;;;;;;;5064488;28;19928;-76
2024/03/04 15:19:21;;;;;;;;;;;;;;;;;;5061872;28;20457;-81
2024/03/04 15:21:48;;;;;;;;;;;;;;;;;;5065423;28;19932;-75
2024/03/04 15:24:15;;;;;;;;;;;;;;;;;;5062980;28;19967;-76
2024/03/04 15:26:43;;;;;;;;;;;;;;;;;;5061801;28;20019;-77
2024/03/04 15:29:10;;;;;;;;;;;;;;;;;;5061279;28;20476;-74
2024/03/04 15:31:38;;;;;;;;;;;;;;;;;;5083552;22;19944;-75
2024/03/04 15:34:06;;;;;;;;;;;;;;;;;;5077355;28;19975;-77
2024/03/04 15:36:33;;;;;;;;;;;;;;;;;;5084271;28;19935;-77
2024/03/04 15:39:01;;;;;;;;;;;;;;;;;;5075992;28;20026;-76
2024/03/04 15:41:27;;;;;;;;;;;;;;;;;;5074624;28;19936;-74
2024/03/04 15:43:55;;;;;;;;;;;;;;;;;;5086877;28;19934;-76
2024/03/04 15:46:22;;;;;;;;;;;;;;;;;;5088982;28;19932;-77
2024/03/04 15:48:49;;;;;;;;;;;;;;;;;;5088453;28;20035;-76
2024/03/04 15:51:16;;;;;;;;;;;;;;;;;;5088245;28;19928;-77
2024/03/04 15:53:45;;;;;;;;;;;;;;;;;;5087818;28;19951;-77
2024/03/04 15:56:12;;;;;;;;;;;;;;;;;;5086828;28;19928;-77
2024/03/04 15:58:39;;;;;;;;;;;;;;;;;;5087058;28;20006;-81
2024/03/04 16:01:06;;;;;;;;;;;;;;;;;;5088253;28;19932;-83
2024/03/04 16:03:33;;;;;;;;;;;;;;;;;;5087544;28;20452;-77
2024/03/04 16:06:00;;;;;;;;;;;;;;;;;;5088397;28;20018;-79
2024/03/04 16:08:27;;;;;;;;;;;;;;;;;;5077790;28;19928;-78
2024/03/04 16:10:54;;;;;;;;;;;;;;;;;;5077174;28;20386;-77
2024/03/04 16:13:21;;;;;;;;;;;;;;;;;;5078755;28;19974;-78
2024/03/04 16:15:49;;;;;;;;;;;;;;;;;;5077271;28;20026;-78
2024/03/04 16:18:16;;;;;;;;;;;;;;;;;;5079498;28;19929;-76
2024/03/04 16:20:43;;;;;;;;;;;;;;;;;;5081162;28;20079;-76
2024/03/04 16:23:12;;;;;;;;;;;;;;;;;;5078827;28;19990;-76
2024/03/04 16:25:39;;;;;;;;;;;;;;;;;;5078992;28;19932;-78
2024/03/04 16:28:06;;;;;;;;;;;;;;;;;;5080488;28;19928;-78
2024/03/04 16:30:33;;;;;;;;;;;;;;;;;;5078991;28;19928;-78
2024/03/04 16:33:03;;;;;;;;;;;;;;;;;;5076657;28;19935;-78
2024/03/04 16:35:31;;;;;;;;;;;;;;;;;;5079232;28;19936;-78
2024/03/04 16:37:58;;;;;;;;;;;;;;;;;;5075308;28;19932;-77
2024/03/04 16:40:25;;;;;;;;;;;;;;;;;;5079735;28;20368;-78
2024/03/04 16:42:52;;;;;;;;;;;;;;;;;;5080719;28;19934;-78
2024/03/04 16:45:19;;;;;;;;;;;;;;;;;;5079536;28;19935;-79
2024/03/04 16:47:46;;;;;;;;;;;;;;;;;;5072030;28;19938;-78